sensor_id;sensor_type;location;lat;lon;timestamp;temperature;humidity
36444;DHT22;24692;45.642;13.806;2023-04-25T00:00:26;10.90;99.90
36444;DHT22;24692;45.642;13.806;2023-04-25T00:02:52;10.80;99.90
36444;DHT22;24692;45.642;13.806;2023-04-25T00:05:17;10.80;99.90
36444;DHT22;24692;45.642;13.806;2023-04-25T00:07:44;10.70;99.90
36444;DHT22;24692;45.642;13.806;2023-04-25T00:10:11;10.70;99.90
36444;DHT22;24692;45.642;13.806;2023-04-25T00:12:37;10.80;99.90
36444;DHT22;24692;45.642;13.806;2023-04-25T00:15:04;10.70;99.90
36444;DHT22;24692;45.642;13.806;2023-04-25T00:17:30;10.80;99.90
36444;DHT22;24692;45.642;13.806;2023-04-25T00:19:56;10.80;99.90
36444;DHT22;24692;45.642;13.806;2023-04-25T00:22:23;10.80;99.90
36444;DHT22;24692;45.642;13.806;2023-04-25T00:24:49;10.90;99.90
36444;DHT22;24692;45.642;13.806;2023-04-25T00:27:15;10.90;99.90
36444;DHT22;24692;45.642;13.806;2023-04-25T00:29:41;10.80;99.90
36444;DHT22;24692;45.642;13.806;2023-04-25T00:32:07;10.70;99.90
36444;DHT22;24692;45.642;13.806;2023-04-25T00:34:32;10.60;99.90
36444;DHT22;24692;45.642;13.806;2023-04-25T00:36:58;10.60;99.90
36444;DHT22;24692;45.642;13.806;2023-04-25T00:39:27;10.80;99.90
36444;DHT22;24692;45.642;13.806;2023-04-25T00:41:54;10.90;99.90
36444;DHT22;24692;45.642;13.806;2023-04-25T00:44:20;10.90;99.90
36444;DHT22;24692;45.642;13.806;2023-04-25T00:46:47;10.80;99.90
36444;DHT22;24692;45.642;13.806;2023-04-25T00:49:14;10.80;99.90
36444;DHT22;24692;45.642;13.806;2023-04-25T00:51:42;10.80;99.90
36444;DHT22;24692;45.642;13.806;2023-04-25T00:54:13;10.90;99.90
36444;DHT22;24692;45.642;13.806;2023-04-25T00:56:39;11.20;99.90
36444;DHT22;24692;45.642;13.806;2023-04-25T00:59:05;11.40;99.90
36444;DHT22;24692;45.642;13.806;2023-04-25T01:01:32;11.40;99.90
36444;DHT22;24692;45.642;13.806;2023-04-25T01:03:58;11.30;99.90
36444;DHT22;24692;45.642;13.806;2023-04-25T01:06:24;11.20;99.90
36444;DHT22;24692;45.642;13.806;2023-04-25T01:08:51;11.10;99.90
36444;DHT22;24692;45.642;13.806;2023-04-25T01:11:17;11.10;99.90
36444;DHT22;24692;45.642;13.806;2023-04-25T01:13:43;11.00;99.90
36444;DHT22;24692;45.642;13.806;2023-04-25T01:16:09;10.90;99.90
36444;DHT22;24692;45.642;13.806;2023-04-25T01:18:37;10.70;99.90
36444;DHT22;24692;45.642;13.806;2023-04-25T01:21:08;10.60;99.90
36444;DHT22;24692;45.642;13.806;2023-04-25T01:23:36;10.60;99.90
36444;DHT22;24692;45.642;13.806;2023-04-25T01:26:02;10.50;99.90
36444;DHT22;24692;45.642;13.806;2023-04-25T01:28:29;10.40;99.90
36444;DHT22;24692;45.642;13.806;2023-04-25T01:30:56;10.40;99.90
36444;DHT22;24692;45.642;13.806;2023-04-25T01:33:22;10.40;99.90
36444;DHT22;24692;45.642;13.806;2023-04-25T01:35:48;10.30;99.90
36444;DHT22;24692;45.642;13.806;2023-04-25T01:38:14;10.30;99.90
36444;DHT22;24692;45.642;13.806;2023-04-25T01:40:41;10.40;99.90
36444;DHT22;24692;45.642;13.806;2023-04-25T01:43:07;10.60;99.90
36444;DHT22;24692;45.642;13.806;2023-04-25T01:45:37;10.70;99.90
36444;DHT22;24692;45.642;13.806;2023-04-25T01:48:05;10.80;99.90
36444;DHT22;24692;45.642;13.806;2023-04-25T01:50:31;10.80;99.90
36444;DHT22;24692;45.642;13.806;2023-04-25T01:52:57;10.80;99.90
36444;DHT22;24692;45.642;13.806;2023-04-25T01:55:22;10.90;99.90
36444;DHT22;24692;45.642;13.806;2023-04-25T01:57:48;10.90;99.90
36444;DHT22;24692;45.642;13.806;2023-04-25T02:00:14;10.90;99.90
36444;DHT22;24692;45.642;13.806;2023-04-25T02:02:39;10.80;99.90
36444;DHT22;24692;45.642;13.806;2023-04-25T02:05:05;10.80;99.90
36444;DHT22;24692;45.642;13.806;2023-04-25T02:07:32;10.80;99.90
36444;DHT22;24692;45.642;13.806;2023-04-25T02:09:57;10.70;99.90
36444;DHT22;24692;45.642;13.806;2023-04-25T02:12:23;10.70;99.90
36444;DHT22;24692;45.642;13.806;2023-04-25T02:14:49;10.70;99.90
36444;DHT22;24692;45.642;13.806;2023-04-25T02:17:15;10.70;99.90
36444;DHT22;24692;45.642;13.806;2023-04-25T02:19:41;10.70;99.90
36444;DHT22;24692;45.642;13.806;2023-04-25T02:22:07;10.90;99.90
36444;DHT22;24692;45.642;13.806;2023-04-25T02:24:32;10.90;99.90
36444;DHT22;24692;45.642;13.806;2023-04-25T02:26:59;11.10;99.90
36444;DHT22;24692;45.642;13.806;2023-04-25T02:29:24;11.00;99.90
36444;DHT22;24692;45.642;13.806;2023-04-25T02:31:50;10.90;99.90
36444;DHT22;24692;45.642;13.806;2023-04-25T02:34:16;10.70;99.90
36444;DHT22;24692;45.642;13.806;2023-04-25T02:36:41;10.60;99.90
36444;DHT22;24692;45.642;13.806;2023-04-25T02:39:07;10.50;99.90
36444;DHT22;24692;45.642;13.806;2023-04-25T02:41:33;10.50;99.90
36444;DHT22;24692;45.642;13.806;2023-04-25T02:43:58;10.50;99.90
36444;DHT22;24692;45.642;13.806;2023-04-25T02:46:24;10.40;99.90
36444;DHT22;24692;45.642;13.806;2023-04-25T02:48:49;10.40;99.90
36444;DHT22;24692;45.642;13.806;2023-04-25T02:51:15;10.30;99.90
36444;DHT22;24692;45.642;13.806;2023-04-25T02:53:42;10.20;99.90
36444;DHT22;24692;45.642;13.806;2023-04-25T02:56:07;10.20;99.90
36444;DHT22;24692;45.642;13.806;2023-04-25T02:58:33;10.20;99.90
36444;DHT22;24692;45.642;13.806;2023-04-25T03:00:58;10.20;99.90
36444;DHT22;24692;45.642;13.806;2023-04-25T03:03:24;10.20;99.90
36444;DHT22;24692;45.642;13.806;2023-04-25T03:05:50;10.20;99.90
36444;DHT22;24692;45.642;13.806;2023-04-25T03:08:17;10.20;99.90
36444;DHT22;24692;45.642;13.806;2023-04-25T03:10:43;10.20;99.90
36444;DHT22;24692;45.642;13.806;2023-04-25T03:13:09;10.20;99.90
36444;DHT22;24692;45.642;13.806;2023-04-25T03:15:35;10.10;99.90
36444;DHT22;24692;45.642;13.806;2023-04-25T03:18:01;10.20;99.90
36444;DHT22;24692;45.642;13.806;2023-04-25T03:20:27;10.00;99.90
36444;DHT22;24692;45.642;13.806;2023-04-25T03:22:53;9.90;99.90
36444;DHT22;24692;45.642;13.806;2023-04-25T03:25:19;9.90;99.90
36444;DHT22;24692;45.642;13.806;2023-04-25T03:27:45;9.80;99.90
36444;DHT22;24692;45.642;13.806;2023-04-25T03:30:11;9.70;99.90
36444;DHT22;24692;45.642;13.806;2023-04-25T03:32:37;9.60;99.90
36444;DHT22;24692;45.642;13.806;2023-04-25T03:35:03;9.50;99.90
36444;DHT22;24692;45.642;13.806;2023-04-25T03:37:29;9.60;99.90
36444;DHT22;24692;45.642;13.806;2023-04-25T03:39:55;9.50;99.90
36444;DHT22;24692;45.642;13.806;2023-04-25T03:42:20;9.50;99.90
36444;DHT22;24692;45.642;13.806;2023-04-25T03:44:48;9.50;99.90
36444;DHT22;24692;45.642;13.806;2023-04-25T03:47:14;9.50;99.90
36444;DHT22;24692;45.642;13.806;2023-04-25T03:49:41;9.50;99.90
36444;DHT22;24692;45.642;13.806;2023-04-25T03:52:06;9.50;99.90
36444;DHT22;24692;45.642;13.806;2023-04-25T03:54:32;9.40;99.90
36444;DHT22;24692;45.642;13.806;2023-04-25T03:56:58;9.40;99.90
36444;DHT22;24692;45.642;13.806;2023-04-25T03:59:24;9.40;99.90
36444;DHT22;24692;45.642;13.806;2023-04-25T04:01:51;9.40;99.90
36444;DHT22;24692;45.642;13.806;2023-04-25T04:04:17;9.50;99.90
36444;DHT22;24692;45.642;13.806;2023-04-25T04:06:43;9.40;99.90
36444;DHT22;24692;45.642;13.806;2023-04-25T04:09:09;9.50;99.90
36444;DHT22;24692;45.642;13.806;2023-04-25T04:11:37;9.50;99.90
36444;DHT22;24692;45.642;13.806;2023-04-25T04:14:04;9.50;99.90
36444;DHT22;24692;45.642;13.806;2023-04-25T04:16:31;9.50;99.90
36444;DHT22;24692;45.642;13.806;2023-04-25T04:18:56;9.40;99.90
36444;DHT22;24692;45.642;13.806;2023-04-25T04:21:22;9.40;99.90
36444;DHT22;24692;45.642;13.806;2023-04-25T04:23:47;9.50;99.90
36444;DHT22;24692;45.642;13.806;2023-04-25T04:26:14;9.50;99.90
36444;DHT22;24692;45.642;13.806;2023-04-25T04:28:42;9.70;99.90
36444;DHT22;24692;45.642;13.806;2023-04-25T04:31:09;9.90;99.90
36444;DHT22;24692;45.642;13.806;2023-04-25T04:33:35;10.10;99.90
36444;DHT22;24692;45.642;13.806;2023-04-25T04:36:02;10.10;99.90
36444;DHT22;24692;45.642;13.806;2023-04-25T04:38:29;10.20;99.90
36444;DHT22;24692;45.642;13.806;2023-04-25T04:40:54;10.20;99.90
36444;DHT22;24692;45.642;13.806;2023-04-25T04:43:21;10.30;99.90
36444;DHT22;24692;45.642;13.806;2023-04-25T04:45:48;10.40;99.90
36444;DHT22;24692;45.642;13.806;2023-04-25T04:48:14;10.60;99.90
36444;DHT22;24692;45.642;13.806;2023-04-25T04:50:40;10.70;99.90
36444;DHT22;24692;45.642;13.806;2023-04-25T04:53:08;10.80;99.90
36444;DHT22;24692;45.642;13.806;2023-04-25T04:55:33;11.00;99.90
36444;DHT22;24692;45.642;13.806;2023-04-25T04:57:59;11.20;99.90
36444;DHT22;24692;45.642;13.806;2023-04-25T05:00:25;11.30;99.90
36444;DHT22;24692;45.642;13.806;2023-04-25T05:02:51;11.30;99.90
36444;DHT22;24692;45.642;13.806;2023-04-25T05:05:17;11.30;99.90
36444;DHT22;24692;45.642;13.806;2023-04-25T05:07:45;11.50;99.90
36444;DHT22;24692;45.642;13.806;2023-04-25T05:10:13;11.60;99.90
36444;DHT22;24692;45.642;13.806;2023-04-25T05:12:39;11.70;99.90
36444;DHT22;24692;45.642;13.806;2023-04-25T05:15:05;11.80;99.90
36444;DHT22;24692;45.642;13.806;2023-04-25T05:17:32;12.00;99.90
36444;DHT22;24692;45.642;13.806;2023-04-25T05:19:58;12.10;99.90
36444;DHT22;24692;45.642;13.806;2023-04-25T05:22:24;12.20;99.90
36444;DHT22;24692;45.642;13.806;2023-04-25T05:24:49;12.40;99.90
36444;DHT22;24692;45.642;13.806;2023-04-25T05:27:17;12.30;99.90
36444;DHT22;24692;45.642;13.806;2023-04-25T05:29:44;12.40;99.90
36444;DHT22;24692;45.642;13.806;2023-04-25T05:32:09;12.40;99.90
36444;DHT22;24692;45.642;13.806;2023-04-25T05:34:35;12.60;99.90
36444;DHT22;24692;45.642;13.806;2023-04-25T05:37:01;12.80;99.90
36444;DHT22;24692;45.642;13.806;2023-04-25T05:39:27;12.90;99.90
36444;DHT22;24692;45.642;13.806;2023-04-25T05:41:52;12.90;99.90
36444;DHT22;24692;45.642;13.806;2023-04-25T05:44:18;12.90;99.90
36444;DHT22;24692;45.642;13.806;2023-04-25T05:46:44;12.90;99.90
36444;DHT22;24692;45.642;13.806;2023-04-25T05:49:09;12.90;99.90
36444;DHT22;24692;45.642;13.806;2023-04-25T05:51:35;13.00;99.90
36444;DHT22;24692;45.642;13.806;2023-04-25T05:54:01;13.00;99.90
36444;DHT22;24692;45.642;13.806;2023-04-25T05:56:26;13.00;99.90
36444;DHT22;24692;45.642;13.806;2023-04-25T05:58:52;13.10;99.90
36444;DHT22;24692;45.642;13.806;2023-04-25T06:01:18;13.30;99.90
36444;DHT22;24692;45.642;13.806;2023-04-25T06:03:44;13.30;99.90
36444;DHT22;24692;45.642;13.806;2023-04-25T06:06:11;13.40;99.90
36444;DHT22;24692;45.642;13.806;2023-04-25T06:08:37;13.50;99.90
36444;DHT22;24692;45.642;13.806;2023-04-25T06:11:04;13.60;99.90
36444;DHT22;24692;45.642;13.806;2023-04-25T06:13:30;13.90;99.90
36444;DHT22;24692;45.642;13.806;2023-04-25T06:15:55;14.00;99.90
36444;DHT22;24692;45.642;13.806;2023-04-25T06:18:21;14.00;99.90
36444;DHT22;24692;45.642;13.806;2023-04-25T06:20:47;14.20;99.90
36444;DHT22;24692;45.642;13.806;2023-04-25T06:23:12;14.40;99.90
36444;DHT22;24692;45.642;13.806;2023-04-25T06:25:38;14.40;99.90
36444;DHT22;24692;45.642;13.806;2023-04-25T06:28:04;14.50;99.90
36444;DHT22;24692;45.642;13.806;2023-04-25T06:30:29;14.50;99.90
36444;DHT22;24692;45.642;13.806;2023-04-25T06:32:55;14.50;99.90
36444;DHT22;24692;45.642;13.806;2023-04-25T06:35:21;14.50;99.90
36444;DHT22;24692;45.642;13.806;2023-04-25T06:37:47;14.40;99.90
36444;DHT22;24692;45.642;13.806;2023-04-25T06:40:12;14.40;99.90
36444;DHT22;24692;45.642;13.806;2023-04-25T06:42:38;14.30;99.90
36444;DHT22;24692;45.642;13.806;2023-04-25T06:45:04;14.40;99.90
36444;DHT22;24692;45.642;13.806;2023-04-25T06:47:29;14.30;99.90
36444;DHT22;24692;45.642;13.806;2023-04-25T06:49:55;14.30;99.90
36444;DHT22;24692;45.642;13.806;2023-04-25T06:52:21;14.40;99.90
36444;DHT22;24692;45.642;13.806;2023-04-25T06:54:47;14.40;99.90
36444;DHT22;24692;45.642;13.806;2023-04-25T06:57:13;14.30;99.90
36444;DHT22;24692;45.642;13.806;2023-04-25T06:59:38;14.30;99.90
36444;DHT22;24692;45.642;13.806;2023-04-25T07:02:04;14.40;99.90
36444;DHT22;24692;45.642;13.806;2023-04-25T07:04:31;14.40;99.90
36444;DHT22;24692;45.642;13.806;2023-04-25T07:06:57;14.30;99.90
36444;DHT22;24692;45.642;13.806;2023-04-25T07:09:22;13.90;99.90
36444;DHT22;24692;45.642;13.806;2023-04-25T07:11:48;13.50;99.90
36444;DHT22;24692;45.642;13.806;2023-04-25T07:14:14;13.30;99.90
36444;DHT22;24692;45.642;13.806;2023-04-25T07:16:40;13.10;99.90
36444;DHT22;24692;45.642;13.806;2023-04-25T07:19:06;13.00;99.90
36444;DHT22;24692;45.642;13.806;2023-04-25T07:21:31;13.00;99.90
36444;DHT22;24692;45.642;13.806;2023-04-25T07:23:58;13.00;99.90
36444;DHT22;24692;45.642;13.806;2023-04-25T07:26:23;13.10;99.90
36444;DHT22;24692;45.642;13.806;2023-04-25T07:28:49;13.20;99.90
36444;DHT22;24692;45.642;13.806;2023-04-25T07:31:17;13.20;99.90
36444;DHT22;24692;45.642;13.806;2023-04-25T07:33:44;13.10;99.90
36444;DHT22;24692;45.642;13.806;2023-04-25T07:36:10;13.30;99.90
36444;DHT22;24692;45.642;13.806;2023-04-25T07:38:36;13.50;99.90
36444;DHT22;24692;45.642;13.806;2023-04-25T07:41:02;13.60;99.90
36444;DHT22;24692;45.642;13.806;2023-04-25T07:43:27;13.70;99.90
36444;DHT22;24692;45.642;13.806;2023-04-25T07:45:53;13.70;99.90
36444;DHT22;24692;45.642;13.806;2023-04-25T07:48:18;13.70;99.90
36444;DHT22;24692;45.642;13.806;2023-04-25T07:50:44;13.70;99.90
36444;DHT22;24692;45.642;13.806;2023-04-25T07:53:10;13.70;99.90
36444;DHT22;24692;45.642;13.806;2023-04-25T07:55:36;13.70;99.90
36444;DHT22;24692;45.642;13.806;2023-04-25T07:58:08;13.50;99.90
36444;DHT22;24692;45.642;13.806;2023-04-25T08:00:34;13.60;99.90
36444;DHT22;24692;45.642;13.806;2023-04-25T08:03:00;13.60;99.90
36444;DHT22;24692;45.642;13.806;2023-04-25T08:05:25;13.60;99.90
36444;DHT22;24692;45.642;13.806;2023-04-25T08:07:51;13.70;99.90
36444;DHT22;24692;45.642;13.806;2023-04-25T08:10:17;13.70;99.90
36444;DHT22;24692;45.642;13.806;2023-04-25T08:12:42;13.60;99.90
36444;DHT22;24692;45.642;13.806;2023-04-25T08:15:09;13.60;99.90
36444;DHT22;24692;45.642;13.806;2023-04-25T08:17:34;13.60;99.90
36444;DHT22;24692;45.642;13.806;2023-04-25T08:20:00;13.50;99.90
36444;DHT22;24692;45.642;13.806;2023-04-25T08:22:28;13.50;99.90
36444;DHT22;24692;45.642;13.806;2023-04-25T08:24:54;13.40;99.90
36444;DHT22;24692;45.642;13.806;2023-04-25T08:27:20;13.10;99.90
36444;DHT22;24692;45.642;13.806;2023-04-25T08:29:46;12.90;99.90
36444;DHT22;24692;45.642;13.806;2023-04-25T08:32:12;12.80;99.90
36444;DHT22;24692;45.642;13.806;2023-04-25T08:34:37;12.70;99.90
36444;DHT22;24692;45.642;13.806;2023-04-25T08:37:04;12.60;99.90
36444;DHT22;24692;45.642;13.806;2023-04-25T08:39:31;12.60;99.90
36444;DHT22;24692;45.642;13.806;2023-04-25T08:41:56;12.50;99.90
36444;DHT22;24692;45.642;13.806;2023-04-25T08:44:22;12.60;99.90
36444;DHT22;24692;45.642;13.806;2023-04-25T08:46:49;12.70;99.90
36444;DHT22;24692;45.642;13.806;2023-04-25T08:49:16;12.70;99.90
36444;DHT22;24692;45.642;13.806;2023-04-25T08:51:45;12.80;99.90
36444;DHT22;24692;45.642;13.806;2023-04-25T08:54:15;12.80;99.90
36444;DHT22;24692;45.642;13.806;2023-04-25T08:56:44;12.80;99.90
36444;DHT22;24692;45.642;13.806;2023-04-25T08:59:12;12.80;99.90
36444;DHT22;24692;45.642;13.806;2023-04-25T09:01:39;12.80;99.90
36444;DHT22;24692;45.642;13.806;2023-04-25T09:04:05;12.70;99.90
36444;DHT22;24692;45.642;13.806;2023-04-25T09:06:30;12.50;99.90
36444;DHT22;24692;45.642;13.806;2023-04-25T09:09:05;12.60;99.90
36444;DHT22;24692;45.642;13.806;2023-04-25T09:11:32;12.60;99.90
36444;DHT22;24692;45.642;13.806;2023-04-25T09:14:30;12.50;99.90
36444;DHT22;24692;45.642;13.806;2023-04-25T09:19:28;12.60;99.90
36444;DHT22;24692;45.642;13.806;2023-04-25T09:21:55;12.60;99.90
36444;DHT22;24692;45.642;13.806;2023-04-25T09:27:06;12.80;99.90
36444;DHT22;24692;45.642;13.806;2023-04-25T09:29:35;12.60;99.90
36444;DHT22;24692;45.642;13.806;2023-04-25T09:32:19;12.50;99.90
36444;DHT22;24692;45.642;13.806;2023-04-25T09:34:56;12.50;99.90
36444;DHT22;24692;45.642;13.806;2023-04-25T09:37:27;12.50;99.90
36444;DHT22;24692;45.642;13.806;2023-04-25T09:39:54;12.50;99.90
36444;DHT22;24692;45.642;13.806;2023-04-25T09:42:24;12.40;99.90
36444;DHT22;24692;45.642;13.806;2023-04-25T09:44:54;12.30;99.90
36444;DHT22;24692;45.642;13.806;2023-04-25T09:47:23;12.30;99.90
36444;DHT22;24692;45.642;13.806;2023-04-25T09:49:50;12.30;99.90
36444;DHT22;24692;45.642;13.806;2023-04-25T09:52:23;12.30;99.90
36444;DHT22;24692;45.642;13.806;2023-04-25T09:54:50;12.30;99.90
36444;DHT22;24692;45.642;13.806;2023-04-25T09:57:20;12.30;99.90
36444;DHT22;24692;45.642;13.806;2023-04-25T09:59:46;12.40;99.90
36444;DHT22;24692;45.642;13.806;2023-04-25T10:02:14;12.40;99.90
36444;DHT22;24692;45.642;13.806;2023-04-25T10:04:41;12.40;99.90
36444;DHT22;24692;45.642;13.806;2023-04-25T10:07:07;12.30;99.90
36444;DHT22;24692;45.642;13.806;2023-04-25T10:09:36;12.40;99.90
36444;DHT22;24692;45.642;13.806;2023-04-25T10:12:03;12.40;99.90
36444;DHT22;24692;45.642;13.806;2023-04-25T10:14:32;12.50;99.90
36444;DHT22;24692;45.642;13.806;2023-04-25T10:16:59;12.40;99.90
36444;DHT22;24692;45.642;13.806;2023-04-25T10:19:27;12.20;99.90
36444;DHT22;24692;45.642;13.806;2023-04-25T10:24:38;12.20;99.90
36444;DHT22;24692;45.642;13.806;2023-04-25T10:27:04;12.40;99.90
36444;DHT22;24692;45.642;13.806;2023-04-25T10:29:31;12.40;99.90
36444;DHT22;24692;45.642;13.806;2023-04-25T10:31:57;12.40;99.90
36444;DHT22;24692;45.642;13.806;2023-04-25T10:34:42;12.30;99.90
36444;DHT22;24692;45.642;13.806;2023-04-25T10:37:11;12.50;99.90
36444;DHT22;24692;45.642;13.806;2023-04-25T10:39:39;12.60;99.90
36444;DHT22;24692;45.642;13.806;2023-04-25T10:42:06;12.80;99.90
36444;DHT22;24692;45.642;13.806;2023-04-25T10:44:33;12.90;99.90
36444;DHT22;24692;45.642;13.806;2023-04-25T10:47:00;12.70;99.90
36444;DHT22;24692;45.642;13.806;2023-04-25T10:52:12;12.40;99.90
36444;DHT22;24692;45.642;13.806;2023-04-25T10:54:57;12.30;99.90
36444;DHT22;24692;45.642;13.806;2023-04-25T10:57:49;12.40;99.90
36444;DHT22;24692;45.642;13.806;2023-04-25T11:00:20;12.50;99.90
36444;DHT22;24692;45.642;13.806;2023-04-25T11:02:52;12.40;99.90
36444;DHT22;24692;45.642;13.806;2023-04-25T11:05:33;12.40;99.90
36444;DHT22;24692;45.642;13.806;2023-04-25T11:08:00;12.50;99.90
36444;DHT22;24692;45.642;13.806;2023-04-25T11:10:29;12.50;99.90
36444;DHT22;24692;45.642;13.806;2023-04-25T11:12:55;12.60;99.90
36444;DHT22;24692;45.642;13.806;2023-04-25T11:15:21;12.50;99.90
36444;DHT22;24692;45.642;13.806;2023-04-25T11:17:47;12.30;99.90
36444;DHT22;24692;45.642;13.806;2023-04-25T11:20:13;12.40;99.90
36444;DHT22;24692;45.642;13.806;2023-04-25T11:22:41;12.60;99.90
36444;DHT22;24692;45.642;13.806;2023-04-25T11:25:08;12.80;99.90
36444;DHT22;24692;45.642;13.806;2023-04-25T11:30:16;13.00;99.90
36444;DHT22;24692;45.642;13.806;2023-04-25T11:32:42;12.80;99.90
36444;DHT22;24692;45.642;13.806;2023-04-25T11:35:09;12.80;99.90
36444;DHT22;24692;45.642;13.806;2023-04-25T11:37:35;12.70;99.90
36444;DHT22;24692;45.642;13.806;2023-04-25T11:40:02;12.60;99.90
36444;DHT22;24692;45.642;13.806;2023-04-25T11:42:28;12.60;99.90
36444;DHT22;24692;45.642;13.806;2023-04-25T11:44:55;12.60;99.90
36444;DHT22;24692;45.642;13.806;2023-04-25T11:47:30;12.30;99.90
36444;DHT22;24692;45.642;13.806;2023-04-25T11:49:58;12.40;99.90
36444;DHT22;24692;45.642;13.806;2023-04-25T11:52:34;12.30;99.90
36444;DHT22;24692;45.642;13.806;2023-04-25T11:55:00;12.30;99.90
36444;DHT22;24692;45.642;13.806;2023-04-25T11:57:26;12.40;99.90
36444;DHT22;24692;45.642;13.806;2023-04-25T11:59:51;12.40;99.90
36444;DHT22;24692;45.642;13.806;2023-04-25T12:02:26;12.40;99.90
36444;DHT22;24692;45.642;13.806;2023-04-25T12:04:52;12.20;99.90
36444;DHT22;24692;45.642;13.806;2023-04-25T12:07:17;12.30;99.90
36444;DHT22;24692;45.642;13.806;2023-04-25T12:09:51;12.30;99.90
36444;DHT22;24692;45.642;13.806;2023-04-25T12:12:17;12.40;99.90
36444;DHT22;24692;45.642;13.806;2023-04-25T12:14:46;12.30;99.90
36444;DHT22;24692;45.642;13.806;2023-04-25T12:17:16;12.30;99.90
36444;DHT22;24692;45.642;13.806;2023-04-25T12:19:42;12.30;99.90
36444;DHT22;24692;45.642;13.806;2023-04-25T12:22:23;12.40;99.90
36444;DHT22;24692;45.642;13.806;2023-04-25T12:24:49;12.40;99.90
36444;DHT22;24692;45.642;13.806;2023-04-25T12:27:16;12.40;99.90
36444;DHT22;24692;45.642;13.806;2023-04-25T12:29:59;12.40;99.90
36444;DHT22;24692;45.642;13.806;2023-04-25T12:32:25;12.40;99.90
36444;DHT22;24692;45.642;13.806;2023-04-25T12:34:51;12.50;99.90
36444;DHT22;24692;45.642;13.806;2023-04-25T12:37:17;12.50;99.90
36444;DHT22;24692;45.642;13.806;2023-04-25T12:39:43;12.60;99.90
36444;DHT22;24692;45.642;13.806;2023-04-25T12:42:08;12.70;99.90
36444;DHT22;24692;45.642;13.806;2023-04-25T12:44:37;12.80;99.90
36444;DHT22;24692;45.642;13.806;2023-04-25T12:47:03;12.60;99.90
36444;DHT22;24692;45.642;13.806;2023-04-25T12:49:29;12.50;99.90
36444;DHT22;24692;45.642;13.806;2023-04-25T12:51:55;12.50;99.90
36444;DHT22;24692;45.642;13.806;2023-04-25T12:54:20;12.40;99.90
36444;DHT22;24692;45.642;13.806;2023-04-25T12:56:46;12.60;99.90
36444;DHT22;24692;45.642;13.806;2023-04-25T12:59:12;12.60;99.90
36444;DHT22;24692;45.642;13.806;2023-04-25T13:01:38;12.80;99.90
36444;DHT22;24692;45.642;13.806;2023-04-25T13:04:04;13.00;99.90
36444;DHT22;24692;45.642;13.806;2023-04-25T13:06:30;13.10;99.90
36444;DHT22;24692;45.642;13.806;2023-04-25T13:08:56;13.20;99.90
36444;DHT22;24692;45.642;13.806;2023-04-25T13:11:21;13.20;99.90
36444;DHT22;24692;45.642;13.806;2023-04-25T13:13:47;13.30;99.90
36444;DHT22;24692;45.642;13.806;2023-04-25T13:16:13;13.40;99.90
36444;DHT22;24692;45.642;13.806;2023-04-25T13:18:42;13.50;99.90
36444;DHT22;24692;45.642;13.806;2023-04-25T13:21:09;13.60;99.90
36444;DHT22;24692;45.642;13.806;2023-04-25T13:23:36;13.70;99.90
36444;DHT22;24692;45.642;13.806;2023-04-25T13:26:02;13.90;99.90
36444;DHT22;24692;45.642;13.806;2023-04-25T13:28:28;14.10;99.90
36444;DHT22;24692;45.642;13.806;2023-04-25T13:30:54;14.20;99.90
36444;DHT22;24692;45.642;13.806;2023-04-25T13:33:20;14.30;99.90
36444;DHT22;24692;45.642;13.806;2023-04-25T13:35:47;14.20;99.90
36444;DHT22;24692;45.642;13.806;2023-04-25T13:38:20;14.20;99.90
36444;DHT22;24692;45.642;13.806;2023-04-25T13:40:46;14.40;99.90
36444;DHT22;24692;45.642;13.806;2023-04-25T13:43:12;14.40;99.90
36444;DHT22;24692;45.642;13.806;2023-04-25T13:45:37;14.10;99.90
36444;DHT22;24692;45.642;13.806;2023-04-25T13:48:03;14.20;99.90
36444;DHT22;24692;45.642;13.806;2023-04-25T13:50:29;14.10;99.90
36444;DHT22;24692;45.642;13.806;2023-04-25T13:52:55;14.10;99.90
36444;DHT22;24692;45.642;13.806;2023-04-25T13:55:21;14.30;99.90
36444;DHT22;24692;45.642;13.806;2023-04-25T13:57:46;14.00;99.90
36444;DHT22;24692;45.642;13.806;2023-04-25T14:00:12;14.10;99.90
36444;DHT22;24692;45.642;13.806;2023-04-25T14:02:38;14.10;99.90
36444;DHT22;24692;45.642;13.806;2023-04-25T14:05:05;14.20;99.90
36444;DHT22;24692;45.642;13.806;2023-04-25T14:07:33;14.20;99.90
36444;DHT22;24692;45.642;13.806;2023-04-25T14:09:58;14.00;99.90
36444;DHT22;24692;45.642;13.806;2023-04-25T14:12:24;14.20;99.90
36444;DHT22;24692;45.642;13.806;2023-04-25T14:14:50;14.30;99.90
36444;DHT22;24692;45.642;13.806;2023-04-25T14:17:16;14.30;99.90
36444;DHT22;24692;45.642;13.806;2023-04-25T14:19:42;14.40;99.90
36444;DHT22;24692;45.642;13.806;2023-04-25T14:22:11;14.50;99.90
36444;DHT22;24692;45.642;13.806;2023-04-25T14:24:37;14.80;99.90
36444;DHT22;24692;45.642;13.806;2023-04-25T14:27:02;15.00;99.90
36444;DHT22;24692;45.642;13.806;2023-04-25T14:29:29;15.10;99.90
36444;DHT22;24692;45.642;13.806;2023-04-25T14:31:55;15.30;99.90
36444;DHT22;24692;45.642;13.806;2023-04-25T14:34:22;15.00;99.90
36444;DHT22;24692;45.642;13.806;2023-04-25T14:36:48;14.90;99.90
36444;DHT22;24692;45.642;13.806;2023-04-25T14:39:14;15.50;99.90
36444;DHT22;24692;45.642;13.806;2023-04-25T14:41:40;16.50;99.90
36444;DHT22;24692;45.642;13.806;2023-04-25T14:44:05;16.40;99.90
36444;DHT22;24692;45.642;13.806;2023-04-25T14:46:31;16.90;99.90
36444;DHT22;24692;45.642;13.806;2023-04-25T14:48:57;17.70;99.90
36444;DHT22;24692;45.642;13.806;2023-04-25T14:51:22;18.40;99.90
36444;DHT22;24692;45.642;13.806;2023-04-25T14:53:48;19.50;99.90
36444;DHT22;24692;45.642;13.806;2023-04-25T14:56:14;19.60;99.90
36444;DHT22;24692;45.642;13.806;2023-04-25T14:58:40;19.40;99.90
36444;DHT22;24692;45.642;13.806;2023-04-25T15:01:06;18.90;99.90
36444;DHT22;24692;45.642;13.806;2023-04-25T15:03:32;18.90;99.90
36444;DHT22;24692;45.642;13.806;2023-04-25T15:05:58;18.50;99.90
36444;DHT22;24692;45.642;13.806;2023-04-25T15:08:24;17.90;99.90
36444;DHT22;24692;45.642;13.806;2023-04-25T15:10:50;18.40;99.90
36444;DHT22;24692;45.642;13.806;2023-04-25T15:13:17;18.50;99.90
36444;DHT22;24692;45.642;13.806;2023-04-25T15:15:43;18.10;99.90
36444;DHT22;24692;45.642;13.806;2023-04-25T15:18:09;18.80;99.90
36444;DHT22;24692;45.642;13.806;2023-04-25T15:20:34;19.60;99.90
36444;DHT22;24692;45.642;13.806;2023-04-25T15:23:01;18.90;99.90
36444;DHT22;24692;45.642;13.806;2023-04-25T15:25:28;18.20;99.90
36444;DHT22;24692;45.642;13.806;2023-04-25T15:27:54;18.40;99.90